Pinetop, AZ (85935)

4:21 PM MST on August 04, 2015 (GMT -0700)
Lakeside Summer Homes | | Change Station
CLOSE
Current Station
Personal Weather Station
Location: Lakeside, AZ
Elevation: 6841 ft
Nearby Weather Stations

Elev 6841 ft 34.15 °N, 109.96 °W | Updated 1 minute ago

Clear
Clear
88.9 °F
Feels Like 85 °F
N
0.0
Wind Variable Wind from West
Gusts 0.0 mph

Today
High -- | Low -- °F
--% Chance of Precip.
Yesterday
High -- | Low -- °F
Precip. -- in
5:32 AM 7:18 PM
Waning Gibbous, 73% visible
Pressure 30.25 in
Visibility 10.0 miles
Clouds Clear
Heat Index 85 °F
Dew Point 32 °F
Humidity 13%
Rainfall 0.00 in
Snow Depth Not available.
UV 5 out of 12
Pollen 4.50 out of 12
Air Quality Not available.
Flu Activity Not available.
METAR KSOW 042315Z AUTO 24008KT 10SM CLR 29/03 A3025 RMK AO2

More Conditions Fewer Conditions

Pressure 30.25 in
Visibility 10.0 miles
Clouds Clear
Heat Index 85 °F
Dew Point 32 °F
Humidity 13%
Rainfall 0.00 in
Snow Depth Not available.
UV 5 out of 12
Pollen 4.50 out of 12
Air Quality Not available.
Flu Activity Not available.
METAR KSOW 042315Z AUTO 24008KT 10SM CLR 29/03 A3025 RMK AO2

More Conditions Fewer Conditions

10-Day Weather Forecast

×

Almanac

Astronomy

Aug. 04, 2015 Rise Set
Actual Time
Civil Twilight
Nautical Twilight
Astronomical Twilight
Moon
Length of Visible Light
Length of Day
Tomorrow will be .
, % of the Moon is Illuminated

Today's Extremes

State Highs State Lows

Community

WunderPhotos

Upload Photos

1,844,025 photos uploaded!

WunderBlogs® & News

Nearby

Air Quality

  Air Quality AQ Index Pollutant
Not available.

Snow Depth

Station Depth Elevation

Earthquake Activity

City Distance Mag. Time & Date
Minimum magnitude displayed is 2.5.

Coastal Water Temperatures

Place Temperature

Stations

Nearby Weather Stations

Station Location Temp. Windchill Dew Point Humidity Wind Precip. Elev Updated Type